createdAt,value
2022-12-11T00:00:05.238Z,100734.34
2022-12-11T00:02:31.660Z,100737.72
2022-12-11T00:04:58.020Z,100737.28
2022-12-11T00:07:24.471Z,100737.84
2022-12-11T00:09:50.833Z,100741.50
2022-12-11T00:12:17.167Z,100742.22
2022-12-11T00:14:43.549Z,100742.91
2022-12-11T00:17:10.186Z,100746.81
2022-12-11T00:19:36.617Z,100738.09
2022-12-11T00:22:03.258Z,100742.91
2022-12-11T00:24:29.609Z,100738.91
2022-12-11T00:26:55.995Z,100744.78
2022-12-11T00:29:22.404Z,100742.13
2022-12-11T00:31:48.779Z,100749.28
2022-12-11T00:34:15.209Z,100749.16
2022-12-11T00:36:41.593Z,100744.34
2022-12-11T00:39:08.105Z,100745.06
2022-12-11T00:41:34.488Z,100743.88
2022-12-11T00:44:01.240Z,100741.03
2022-12-11T00:46:27.595Z,100745.84
2022-12-11T00:48:54.008Z,100745.75
2022-12-11T00:51:20.429Z,100746.34
2022-12-11T00:53:46.908Z,100738.22
2022-12-11T00:56:15.846Z,100745.03
2022-12-11T00:58:42.231Z,100740.44
2022-12-11T01:01:12.448Z,100738.69
2022-12-11T01:03:39.338Z,100739.13
2022-12-11T01:06:06.526Z,100738.56
2022-12-11T01:08:38.366Z,100730.09
2022-12-11T01:11:08.867Z,100734.78
2022-12-11T01:13:36.069Z,100728.91
2022-12-11T01:16:11.462Z,100728.31
2022-12-11T01:18:38.150Z,100728.06
2022-12-11T01:21:13.781Z,100732.56
2022-12-11T01:23:40.639Z,100734.91
2022-12-11T01:26:13.525Z,100733.59
2022-12-11T01:28:40.592Z,100735.28
2022-12-11T01:31:11.546Z,100742.69
2022-12-11T01:33:38.996Z,100737.38
2022-12-11T01:36:18.122Z,100739.63
2022-12-11T01:38:45.835Z,100737.16
2022-12-11T01:41:12.599Z,100736.19
2022-12-11T01:43:57.829Z,100733.25
2022-12-11T01:46:24.724Z,100735.13
2022-12-11T01:48:53.500Z,100733.38
2022-12-11T01:51:20.532Z,100729.38
2022-12-11T01:53:54.100Z,100733.16
2022-12-11T01:56:20.682Z,100722.53
2022-12-11T01:58:52.070Z,100726.19
2022-12-11T02:01:45.035Z,100729.38
2022-12-11T02:04:13.470Z,100723.72
2022-12-11T02:06:43.168Z,100721.13
2022-12-11T02:09:13.849Z,100722.66
2022-12-11T02:12:03.351Z,100723.13
2022-12-11T02:14:44.228Z,100726.78
2022-12-11T02:17:31.991Z,100718.06
2022-12-11T02:20:08.251Z,100722.44
2022-12-11T02:23:07.561Z,100718.66
2022-12-11T02:25:46.000Z,100718.53
2022-12-11T02:28:51.958Z,100712.31
2022-12-11T02:31:44.783Z,100712.53
2022-12-11T02:34:18.278Z,100710.78
2022-12-11T02:36:51.320Z,100709.25
2022-12-11T02:39:19.207Z,100711.81
2022-12-11T02:41:49.758Z,100706.16
2022-12-11T02:44:20.731Z,100708.75
2022-12-11T02:46:47.119Z,100710.06
2022-12-11T02:49:14.923Z,100706.91
2022-12-11T02:51:42.807Z,100704.41
2022-12-11T02:54:16.508Z,100702.88
2022-12-11T02:56:51.080Z,100697.81
2022-12-11T02:59:32.883Z,100696.28
2022-12-11T03:01:59.287Z,100692.50
2022-12-11T03:04:25.675Z,100691.34
2022-12-11T03:06:56.411Z,100696.97
2022-12-11T03:09:22.828Z,100697.94
2022-12-11T03:11:49.187Z,100691.00
2022-12-11T03:14:15.731Z,100692.63
2022-12-11T03:16:56.721Z,100693.47
2022-12-11T03:19:35.465Z,100692.63
2022-12-11T03:22:26.581Z,100694.41
2022-12-11T03:25:08.605Z,100688.66
2022-12-11T03:27:44.888Z,100692.78
2022-12-11T03:30:16.227Z,100696.75
2022-12-11T03:32:56.866Z,100696.28
2022-12-11T03:35:43.918Z,100703.81
2022-12-11T03:38:18.636Z,100701.72
2022-12-11T03:40:47.584Z,100707.34
2022-12-11T03:43:16.155Z,100705.47
2022-12-11T03:45:44.766Z,100704.06
2022-12-11T03:48:13.992Z,100701.47
2022-12-11T03:50:41.557Z,100702.16
2022-12-11T03:53:08.304Z,100695.09
2022-12-11T03:55:37.624Z,100691.81
2022-12-11T03:58:05.117Z,100703.13
2022-12-11T04:00:31.891Z,100696.41
2022-12-11T04:03:14.467Z,100685.34
2022-12-11T04:05:43.674Z,100693.44
2022-12-11T04:08:10.724Z,100691.69
2022-12-11T04:10:37.115Z,100689.19
2022-12-11T04:13:03.564Z,100682.03
2022-12-11T04:15:29.938Z,100678.84
2022-12-11T04:18:14.964Z,100677.91
2022-12-11T04:20:59.793Z,100676.94
2022-12-11T04:23:44.619Z,100679.16
2022-12-11T04:26:14.025Z,100677.41
2022-12-11T04:28:41.404Z,100675.38
2022-12-11T04:31:14.965Z,100672.47
2022-12-11T04:33:41.590Z,100672.59
2022-12-11T04:36:08.652Z,100670.50
2022-12-11T04:38:35.377Z,100664.69
2022-12-11T04:41:05.040Z,100665.28
2022-12-11T04:43:31.577Z,100668.72
2022-12-11T04:46:03.197Z,100669.31
2022-12-11T04:48:29.775Z,100662.59
2022-12-11T04:50:56.228Z,100659.06
2022-12-11T04:53:22.599Z,100658.81
2022-12-11T04:55:49.025Z,100662.72
2022-12-11T04:58:15.400Z,100655.06
2022-12-11T05:00:42.134Z,100658.81
2022-12-11T05:03:09.040Z,100661.88
2022-12-11T05:05:35.709Z,100660.13
2022-12-11T05:08:02.109Z,100658.94
2022-12-11T05:10:28.611Z,100670.00
2022-12-11T05:12:54.976Z,100668.94
2022-12-11T05:15:21.455Z,100670.84
2022-12-11T05:17:47.797Z,100668.72
2022-12-11T05:20:14.292Z,100672.38
2022-12-11T05:22:40.669Z,100667.69
2022-12-11T05:25:07.992Z,100673.44
2022-12-11T05:27:34.432Z,100668.97
2022-12-11T05:30:00.813Z,100665.44
2022-12-11T05:32:27.187Z,100671.19
2022-12-11T05:34:53.595Z,100660.25
2022-12-11T05:37:20.006Z,100652.47
2022-12-11T05:39:46.453Z,100656.34
2022-12-11T05:42:12.841Z,100658.59
2022-12-11T05:44:39.264Z,100654.25
2022-12-11T05:47:05.637Z,100655.19
2022-12-11T05:49:32.022Z,100647.31
2022-12-11T05:51:58.358Z,100656.84
2022-12-11T05:54:24.743Z,100651.44
2022-12-11T05:56:51.438Z,100647.31
2022-12-11T05:59:19.575Z,100652.25
2022-12-11T06:01:46.089Z,100645.53
2022-12-11T06:04:13.629Z,100653.78
2022-12-11T06:06:40.602Z,100651.75
2022-12-11T06:09:07.473Z,100646.97
2022-12-11T06:11:34.449Z,100648.03
2022-12-11T06:14:02.352Z,100647.69
2022-12-11T06:16:28.775Z,100646.03
2022-12-11T06:18:58.165Z,100649.94
2022-12-11T06:21:30.493Z,100647.78
2022-12-11T06:23:58.855Z,100646.72
2022-12-11T06:26:26.120Z,100649.78
2022-12-11T06:28:52.960Z,100640.25
2022-12-11T06:31:20.123Z,100649.66
2022-12-11T06:33:47.224Z,100646.34
2022-12-11T06:36:16.785Z,100642.72
2022-12-11T06:38:43.433Z,100642.25
2022-12-11T06:41:10.192Z,100643.97
2022-12-11T06:43:38.244Z,100644.09
2022-12-11T06:46:06.004Z,100642.38
2022-12-11T06:48:33.110Z,100641.06
2022-12-11T06:50:59.594Z,100640.47
2022-12-11T06:53:26.082Z,100645.44
2022-12-11T06:55:52.444Z,100645.91
2022-12-11T06:58:18.947Z,100648.72
2022-12-11T07:00:45.452Z,100646.25
2022-12-11T07:03:13.654Z,100646.25
2022-12-11T07:05:40.095Z,100648.94
2022-12-11T07:08:07.393Z,100646.84
2022-12-11T07:10:33.997Z,100650.00
2022-12-11T07:13:00.453Z,100653.06
2022-12-11T07:15:26.840Z,100657.41
2022-12-11T07:17:53.287Z,100656.38
2022-12-11T07:20:19.938Z,100659.44
2022-12-11T07:22:46.943Z,100663.06
2022-12-11T07:25:13.982Z,100653.41
2022-12-11T07:27:41.452Z,100655.31
2022-12-11T07:30:09.077Z,100656.56
2022-12-11T07:32:35.633Z,100658.97
2022-12-11T07:35:02.152Z,100656.94
2022-12-11T07:37:28.553Z,100660.50
2022-12-11T07:39:55.038Z,100666.50
2022-12-11T07:42:21.468Z,100668.72
2022-12-11T07:44:48.564Z,100663.78
2022-12-11T07:47:15.073Z,100666.13
2022-12-11T07:49:41.471Z,100665.44
2022-12-11T07:52:07.860Z,100661.06
2022-12-11T07:54:34.240Z,100672.16
2022-12-11T07:57:00.642Z,100667.09
2022-12-11T07:59:26.982Z,100673.56
2022-12-11T08:01:53.428Z,100674.63
2022-12-11T08:04:20.154Z,100666.03
2022-12-11T08:06:47.691Z,100670.84
2022-12-11T08:09:21.120Z,100668.84
2022-12-11T08:11:51.612Z,100668.97
2022-12-11T08:14:18.495Z,100669.44
2022-12-11T08:16:45.014Z,100663.19
2022-12-11T08:19:12.226Z,100657.19
2022-12-11T08:21:38.765Z,100656.94
2022-12-11T08:24:05.333Z,100658.22
2022-12-11T08:26:31.993Z,100658.47
2022-12-11T08:28:59.041Z,100666.25
2022-12-11T08:31:26.320Z,100662.94
2022-12-11T08:33:52.990Z,100659.78
2022-12-11T08:36:21.459Z,100662.72
2022-12-11T08:38:48.709Z,100664.13
2022-12-11T08:41:24.624Z,100663.66
2022-12-11T08:43:55.092Z,100664.41
2022-12-11T08:46:24.148Z,100666.84
2022-12-11T08:48:51.040Z,100665.66
2022-12-11T08:51:20.775Z,100665.09
2022-12-11T08:53:47.299Z,100653.41
2022-12-11T08:56:19.774Z,100659.75
2022-12-11T08:58:47.458Z,100652.59
2022-12-11T09:01:25.442Z,100656.84
2022-12-11T09:03:53.490Z,100654.69
2022-12-11T09:06:22.681Z,100654.44
2022-12-11T09:08:52.961Z,100654.09
2022-12-11T09:11:25.658Z,100651.25
2022-12-11T09:13:52.561Z,100658.56
2022-12-11T09:16:21.923Z,100655.75
2022-12-11T09:18:50.406Z,100657.16
2022-12-11T09:21:20.889Z,100653.38
2022-12-11T09:23:48.009Z,100659.59
2022-12-11T09:26:18.018Z,100656.69
2022-12-11T09:28:46.931Z,100664.94
2022-12-11T09:31:16.749Z,100660.59
2022-12-11T09:33:43.672Z,100668.38
2022-12-11T09:40:38.487Z,100658.38
2022-12-11T09:43:31.512Z,100667.97
2022-12-11T09:46:03.037Z,100657.25
2022-12-11T09:48:33.464Z,100658.44
2022-12-11T09:51:12.041Z,100652.34
2022-12-11T09:53:38.968Z,100656.56
2022-12-11T09:56:17.954Z,100655.63
2022-12-11T09:59:05.571Z,100654.44
2022-12-11T10:01:45.636Z,100652.66
2022-12-11T10:04:44.634Z,100656.28
2022-12-11T10:07:13.835Z,100657.47
2022-12-11T10:09:43.036Z,100657.47
2022-12-11T10:12:12.603Z,100646.53
2022-12-11T10:15:12.877Z,100647.47
2022-12-11T10:17:41.844Z,100651.34
2022-12-11T10:20:33.268Z,100644.63
2022-12-11T10:22:59.799Z,100652.16
2022-12-11T10:25:30.003Z,100646.03
2022-12-11T10:27:57.458Z,100647.44
2022-12-11T10:30:36.967Z,100645.66
2022-12-11T10:33:22.599Z,100641.59
2022-12-11T10:35:53.361Z,100642.38
2022-12-11T10:38:42.448Z,100632.13
2022-12-11T10:41:16.238Z,100628.72
2022-12-11T10:43:47.601Z,100628.34
2022-12-11T10:46:25.730Z,100621.72
2022-12-11T10:49:01.844Z,100615.72
2022-12-11T10:51:30.946Z,100624.78
2022-12-11T10:54:07.161Z,100617.88
2022-12-11T10:56:37.427Z,100609.88
2022-12-11T10:59:04.339Z,100606.63
2022-12-11T11:01:32.502Z,100608.63
2022-12-11T11:04:06.552Z,100614.28
2022-12-11T11:06:33.456Z,100604.09
2022-12-11T11:09:01.658Z,100610.78
2022-12-11T11:11:29.548Z,100603.72
2022-12-11T11:14:13.350Z,100602.50
2022-12-11T11:16:41.288Z,100597.78
2022-12-11T11:19:16.360Z,100595.94
2022-12-11T11:21:50.697Z,100600.88
2022-12-11T11:24:28.611Z,100598.66
2022-12-11T11:27:12.841Z,100587.31
2022-12-11T11:29:41.954Z,100592.81
2022-12-11T11:32:20.183Z,100591.75
2022-12-11T11:34:46.710Z,100592.59
2022-12-11T11:37:47.100Z,100583.78
2022-12-11T11:40:21.800Z,100588.38
2022-12-11T11:43:07.535Z,100584.34
2022-12-11T11:45:51.850Z,100581.38
2022-12-11T11:48:48.844Z,100579.31
2022-12-11T11:51:33.095Z,100572.09
2022-12-11T11:54:01.927Z,100573.34
2022-12-11T11:56:36.223Z,100573.56
2022-12-11T11:59:36.318Z,100571.53
2022-12-11T12:02:13.279Z,100568.78
2022-12-11T12:04:39.793Z,100568.22
2022-12-11T12:07:35.935Z,100572.22
2022-12-11T12:10:16.674Z,100569.75
2022-12-11T12:13:18.647Z,100563.59
2022-12-11T12:16:02.749Z,100572.53
2022-12-11T12:18:39.125Z,100569.94
2022-12-11T12:21:36.977Z,100565.06
2022-12-11T12:24:28.239Z,100573.47
2022-12-11T12:27:50.888Z,100566.50
2022-12-11T12:30:22.053Z,100567.34
2022-12-11T12:32:58.397Z,100558.88
2022-12-11T12:35:40.860Z,100558.72
2022-12-11T12:38:21.711Z,100550.56
2022-12-11T12:41:13.991Z,100539.25
2022-12-11T12:44:00.307Z,100541.41
2022-12-11T12:46:34.175Z,100536.66
2022-12-11T12:49:02.430Z,100541.34
2022-12-11T12:51:30.259Z,100543.41
2022-12-11T12:54:03.870Z,100547.22
2022-12-11T12:56:33.944Z,100547.75
2022-12-11T12:59:00.270Z,100548.59
2022-12-11T13:01:30.426Z,100541.88
2022-12-11T13:04:02.160Z,100552.16
2022-12-11T13:06:41.513Z,100547.72
2022-12-11T13:09:15.799Z,100548.66
2022-12-11T13:11:42.455Z,100539.63
2022-12-11T13:14:23.625Z,100540.44
2022-12-11T13:16:52.540Z,100533.09
2022-12-11T13:19:27.590Z,100541.56
2022-12-11T13:22:21.544Z,100538.34
2022-12-11T13:25:01.466Z,100537.97
2022-12-11T13:27:43.437Z,100542.78
2022-12-11T13:30:16.141Z,100540.56
2022-12-11T13:32:54.371Z,100539.59
2022-12-11T13:35:21.104Z,100539.47
2022-12-11T13:37:51.944Z,100531.13
2022-12-11T13:40:25.846Z,100544.91
2022-12-11T13:42:56.581Z,100541.25
2022-12-11T13:45:29.438Z,100544.53
2022-12-11T13:47:59.524Z,100542.25
2022-12-11T13:50:32.790Z,100536.66
2022-12-11T13:53:02.734Z,100534.88
2022-12-11T13:55:34.553Z,100539.25
2022-12-11T13:58:01.002Z,100546.59
2022-12-11T14:00:32.525Z,100546.84
2022-12-11T14:03:04.729Z,100549.16
2022-12-11T14:05:31.462Z,100549.03
2022-12-11T14:08:02.758Z,100555.16
2022-12-11T14:10:32.856Z,100555.03
2022-12-11T14:12:59.173Z,100550.56
2022-12-11T14:15:28.046Z,100553.94
2022-12-11T14:17:55.681Z,100555.59
2022-12-11T14:20:27.834Z,100561.88
2022-12-11T14:23:31.757Z,100561.72
2022-12-11T14:26:04.676Z,100559.03
2022-12-11T14:28:37.920Z,100553.94
2022-12-11T14:31:05.698Z,100560.34
2022-12-11T14:33:36.906Z,100559.94
2022-12-11T14:36:05.001Z,100559.22
2022-12-11T14:38:44.463Z,100566.88
2022-12-11T14:41:19.657Z,100561.56
2022-12-11T14:43:48.653Z,100563.47
2022-12-11T14:46:23.613Z,100567.72
2022-12-11T14:49:00.555Z,100573.00
2022-12-11T14:51:34.789Z,100568.91
2022-12-11T14:54:02.970Z,100574.78
2022-12-11T14:56:30.210Z,100576.31
2022-12-11T14:59:00.985Z,100571.00
2022-12-11T15:01:33.348Z,100568.66
2022-12-11T15:04:02.549Z,100574.28
2022-12-11T15:06:33.100Z,100575.38
2022-12-11T15:09:24.809Z,100573.00
2022-12-11T15:11:52.425Z,100575.50
2022-12-11T15:14:20.692Z,100575.06
2022-12-11T15:16:49.108Z,100570.09
2022-12-11T15:19:24.460Z,100580.94
2022-12-11T15:21:51.494Z,100583.78
2022-12-11T15:24:38.229Z,100581.56
2022-12-11T15:27:05.131Z,100585.44
2022-12-11T15:29:39.836Z,100583.53
2022-12-11T15:32:08.940Z,100585.69
2022-12-11T15:34:52.164Z,100584.59
2022-12-11T15:37:29.257Z,100594.16
2022-12-11T15:39:57.286Z,100579.97
2022-12-11T15:42:31.228Z,100581.75
2022-12-11T15:44:58.890Z,100576.69
2022-12-11T15:47:28.008Z,100586.13
2022-12-11T15:49:58.648Z,100580.69
2022-12-11T15:52:25.461Z,100572.19
2022-12-11T15:54:51.870Z,100578.09
2022-12-11T15:57:21.572Z,100574.97
2022-12-11T15:59:50.023Z,100579.59
2022-12-11T16:02:17.094Z,100583.00
2022-12-11T16:04:43.762Z,100589.97
2022-12-11T16:07:18.041Z,100588.28
2022-12-11T16:09:45.618Z,100587.97
2022-12-11T16:12:13.353Z,100592.63
2022-12-11T16:14:41.302Z,100592.06
2022-12-11T16:17:08.900Z,100591.63
2022-12-11T16:19:36.400Z,100590.94
2022-12-11T16:22:03.502Z,100588.72
2022-12-11T16:24:29.895Z,100592.97
2022-12-11T16:26:56.310Z,100592.97
2022-12-11T16:29:22.833Z,100589.84
2022-12-11T16:31:49.307Z,100586.84
2022-12-11T16:34:16.013Z,100582.72
2022-12-11T16:36:42.420Z,100581.66
2022-12-11T16:39:11.205Z,100585.03
2022-12-11T16:41:38.078Z,100582.97
2022-12-11T16:44:04.726Z,100582.66
2022-12-11T16:46:31.259Z,100581.81
2022-12-11T16:48:57.661Z,100577.91
2022-12-11T16:51:24.305Z,100580.13
2022-12-11T16:53:50.827Z,100577.41
2022-12-11T16:56:17.534Z,100579.81
2022-12-11T16:58:43.922Z,100584.03
2022-12-11T17:01:15.451Z,100578.28
2022-12-11T17:03:43.185Z,100579.91
2022-12-11T17:06:12.289Z,100580.56
2022-12-11T17:08:39.565Z,100581.75
2022-12-11T17:11:10.463Z,100578.47
2022-12-11T17:13:37.580Z,100581.75
2022-12-11T17:16:08.967Z,100578.81
2022-12-11T17:18:35.541Z,100576.22
2022-12-11T17:21:07.062Z,100575.00
2022-12-11T17:23:34.818Z,100577.59
2022-12-11T17:26:02.475Z,100577.47
2022-12-11T17:28:29.995Z,100581.91
2022-12-11T17:30:56.824Z,100575.88
2022-12-11T17:33:23.820Z,100574.25
2022-12-11T17:35:50.208Z,100575.88
2022-12-11T17:38:16.574Z,100573.16
2022-12-11T17:40:44.006Z,100574.81
2022-12-11T17:43:12.065Z,100575.63
2022-12-11T17:45:43.643Z,100572.44
2022-12-11T17:48:10.338Z,100576.72
2022-12-11T17:50:41.469Z,100581.06
2022-12-11T17:53:08.308Z,100575.75
2022-12-11T17:55:36.052Z,100571.53
2022-12-11T17:58:02.891Z,100569.75
2022-12-11T18:00:33.200Z,100572.59
2022-12-11T18:03:00.094Z,100572.59
2022-12-11T18:05:26.525Z,100576.25
2022-12-11T18:07:57.448Z,100574.16
2022-12-11T18:10:24.512Z,100573.78
2022-12-11T18:12:50.839Z,100576.16
2022-12-11T18:15:19.538Z,100580.22
2022-12-11T18:17:46.135Z,100579.69
2022-12-11T18:20:14.630Z,100587.00
2022-12-11T18:22:41.092Z,100582.31
2022-12-11T18:25:10.435Z,100587.28
2022-12-11T18:27:38.514Z,100585.94
2022-12-11T18:30:05.874Z,100580.59
2022-12-11T18:32:32.243Z,100578.03
2022-12-11T18:34:58.575Z,100575.44
2022-12-11T18:37:28.065Z,100585.94
2022-12-11T18:39:54.682Z,100589.59
2022-12-11T18:42:36.429Z,100588.38
2022-12-11T18:45:02.871Z,100579.81
2022-12-11T18:47:29.307Z,100580.59
2022-12-11T18:49:55.761Z,100580.88
2022-12-11T18:52:22.104Z,100576.38
2022-12-11T18:54:49.137Z,100575.84
2022-12-11T18:57:15.514Z,100580.88
2022-12-11T18:59:41.914Z,100580.59
2022-12-11T19:02:08.480Z,100578.16
2022-12-11T19:04:36.086Z,100580.88
2022-12-11T19:07:02.578Z,100578.66
2022-12-11T19:09:32.821Z,100576.31
2022-12-11T19:12:04.024Z,100581.25
2022-12-11T19:14:30.384Z,100576.75
2022-12-11T19:16:56.838Z,100584.31
2022-12-11T19:19:23.248Z,100578.03
2022-12-11T19:21:50.150Z,100579.91
2022-12-11T19:24:22.432Z,100593.03
2022-12-11T19:26:49.172Z,100593.97
2022-12-11T19:29:32.440Z,100582.47
2022-12-11T19:31:59.076Z,100588.34
2022-12-11T19:34:25.542Z,100579.34
2022-12-11T19:36:51.922Z,100577.66
2022-12-11T19:39:19.615Z,100584.22
2022-12-11T19:41:46.833Z,100584.41
2022-12-11T19:44:13.210Z,100589.22
2022-12-11T19:46:40.231Z,100584.88
2022-12-11T19:49:06.761Z,100586.22
2022-12-11T19:51:38.197Z,100585.94
2022-12-11T19:54:06.815Z,100586.22
2022-12-11T19:56:34.784Z,100576.38
2022-12-11T19:59:06.425Z,100571.81
2022-12-11T20:01:35.768Z,100573.78
2022-12-11T20:04:05.927Z,100573.56
2022-12-11T20:06:34.971Z,100569.53
2022-12-11T20:09:02.146Z,100572.13
2022-12-11T20:11:29.219Z,100576.25
2022-12-11T20:13:55.932Z,100577.47
2022-12-11T20:16:45.828Z,100577.31
2022-12-11T20:19:09.566Z,100571.19
2022-12-11T20:21:35.905Z,100575.44
2022-12-11T20:24:02.307Z,100578.84
2022-12-11T20:26:30.933Z,100576.00
2022-12-11T20:28:57.400Z,100583.78
2022-12-11T20:31:25.521Z,100579.69
2022-12-11T20:33:53.549Z,100577.91
2022-12-11T20:36:21.593Z,100575.56
2022-12-11T20:38:48.730Z,100574.72
2022-12-11T20:41:18.839Z,100565.78
2022-12-11T20:43:45.412Z,100565.19
2022-12-11T20:46:14.924Z,100566.41
2022-12-11T20:48:42.719Z,100564.63
2022-12-11T20:51:11.587Z,100560.69
2022-12-11T20:53:38.615Z,100563.88
2022-12-11T20:56:13.129Z,100558.25
2022-12-11T20:58:40.302Z,100557.28
2022-12-11T21:01:06.923Z,100553.59
2022-12-11T21:03:40.420Z,100562.22
2022-12-11T21:06:16.811Z,100556.78
2022-12-11T21:08:43.142Z,100558.56
2022-12-11T21:11:09.501Z,100556.78
2022-12-11T21:13:37.256Z,100561.69
2022-12-11T21:16:06.117Z,100558.59
2022-12-11T21:18:32.598Z,100562.16
2022-12-11T21:20:59.523Z,100572.66
2022-12-11T21:23:26.872Z,100573.47
2022-12-11T21:25:53.743Z,100569.56
2022-12-11T21:28:20.438Z,100568.97
2022-12-11T21:30:46.931Z,100563.69
2022-12-11T21:33:13.267Z,100574.56
2022-12-11T21:35:39.660Z,100566.38
2022-12-11T21:38:06.126Z,100558.72
2022-12-11T21:40:32.464Z,100558.59
2022-12-11T21:42:58.859Z,100564.22
2022-12-11T21:45:59.303Z,100562.59
2022-12-11T21:48:11.689Z,100567.16
2022-12-11T21:50:38.076Z,100569.47
2022-12-11T21:53:04.449Z,100573.16
2022-12-11T21:55:30.801Z,100575.88
2022-12-11T21:57:57.213Z,100581.06
2022-12-11T22:00:23.804Z,100579.84
2022-12-11T22:02:50.535Z,100581.50
2022-12-11T22:05:16.924Z,100581.94
2022-12-11T22:07:43.349Z,100585.50
2022-12-11T22:10:10.120Z,100591.50
2022-12-11T22:12:36.463Z,100588.22
2022-12-11T22:15:03.755Z,100587.97
2022-12-11T22:17:31.561Z,100592.06
2022-12-11T22:19:57.876Z,100594.66
2022-12-11T22:22:24.245Z,100596.13
2022-12-11T22:24:50.721Z,100592.59
2022-12-11T22:27:23.273Z,100595.31
2022-12-11T22:29:50.191Z,100602.13
2022-12-11T22:32:16.545Z,100610.66
2022-12-11T22:34:42.975Z,100604.91
2022-12-11T22:37:09.313Z,100608.91
2022-12-11T22:39:35.687Z,100613.84
2022-12-11T22:42:02.138Z,100602.66
2022-12-11T22:44:28.526Z,100604.16
2022-12-11T22:46:54.928Z,100610.88
2022-12-11T22:49:21.361Z,100604.84
2022-12-11T22:51:48.992Z,100607.31
2022-12-11T22:54:15.467Z,100611.56
2022-12-11T22:56:41.956Z,100607.31
2022-12-11T22:59:08.354Z,100604.16
2022-12-11T23:01:34.790Z,100608.84
2022-12-11T23:04:01.297Z,100608.38
2022-12-11T23:06:27.706Z,100607.69
2022-12-11T23:08:57.989Z,100610.66
2022-12-11T23:11:28.777Z,100603.47
2022-12-11T23:13:56.149Z,100603.72
2022-12-11T23:16:25.889Z,100610.56
2022-12-11T23:18:53.012Z,100607.81
2022-12-11T23:21:20.106Z,100615.22
2022-12-11T23:23:46.687Z,100604.16
2022-12-11T23:26:14.650Z,100610.28
2022-12-11T23:28:41.599Z,100614.53
2022-12-11T23:31:08.882Z,100612.78
2022-12-11T23:33:35.343Z,100613.56
2022-12-11T23:36:02.121Z,100610.19
2022-12-11T23:38:28.620Z,100605.78
2022-12-11T23:40:55.456Z,100607.59
2022-12-11T23:43:22.291Z,100609.22
2022-12-11T23:45:48.813Z,100618.91
2022-12-11T23:48:15.640Z,100618.94
2022-12-11T23:50:42.910Z,100613.94
2022-12-11T23:53:09.850Z,100603.84
2022-12-11T23:55:38.874Z,100618.34
2022-12-11T23:58:05.528Z,100619.97
